Dati Storici

Data ora Umidita' aria (%) Temperatura aria (°C) Rad globale (W/m²) Gonioanemometro (°) Tacoanemometro (m/s) Pioggia (mm)
06-11-2012 05:30 75.1 % 8.086 2.587 42.569 1.866 0
06-11-2012 05:20 75.1 % 8.263 3.228 2.164 1.714 0
06-11-2012 05:10 75.4 % 8.226 3.426 3.662 1.438 0
06-11-2012 05:00 75.5 % 8.067 2.49 11.853 1.088 0
06-11-2012 04:50 76.1 % 7.948 2.079 52.626 0.739 0
06-11-2012 04:40 76.4 % 7.796 1.899 322.64 0.435 0
06-11-2012 04:30 76.1 % 7.935 2.015 6.147 0.276 0
06-11-2012 04:20 76 % 8.035 2.054 53.245 0.665 0
06-11-2012 04:10 75.4 % 7.908 1.436 347.172 0.278 0
06-11-2012 04:00 74.3 % 8.115 1.526 87.344 0.603 0
06-11-2012 03:50 73.5 % 8.429 1.924 35.147 1.014 0
06-11-2012 03:40 73.3 % 8.473 1.988 25.165 0.58 0
06-11-2012 03:30 73.1 % 8.726 2.117 17.013 1.81 0
06-11-2012 03:20 73.5 % 8.679 1.906 11.742 1.293 0
06-11-2012 03:10 73.2 % 8.701 1.867 42.461 1.643 0
06-11-2012 03:00 73.5 % 8.813 2.06 3.376 0.868 0
06-11-2012 02:50 74.5 % 8.785 2.085 42.586 1.162 0
06-11-2012 02:40 75.1 % 8.758 1.946 15.021 0.851 0
06-11-2012 02:30 75.5 % 8.689 2.036 6.191 2.283 0
06-11-2012 02:20 75.6 % 8.713 2.215 22.893 2.085 0

I dati sono presentati in modo automatico a scopo informativo. In seguito a verifica i dati possono subire modifiche o essere invalidati e non riportati negli archivi definitivi.